createdAt,value
2022-10-03T00:00:16.740Z,43.70
2022-10-03T00:02:52.457Z,29.77
2022-10-03T00:05:42.293Z,26.73
2022-10-03T00:08:33.545Z,24.38
2022-10-03T00:11:23.949Z,37.67
2022-10-03T00:13:59.654Z,27.23
2022-10-03T00:17:03.258Z,19.15
2022-10-03T00:19:47.962Z,22.92
2022-10-03T00:22:27.720Z,21.95
2022-10-03T00:25:06.767Z,23.65
2022-10-03T00:28:02.656Z,26.00
2022-10-03T00:30:33.484Z,17.33
2022-10-03T00:33:04.854Z,15.57
2022-10-03T00:35:37.481Z,17.23
2022-10-03T00:38:07.181Z,22.52
2022-10-03T00:40:55.881Z,32.28
2022-10-03T00:43:36.094Z,26.00
2022-10-03T00:46:38.199Z,31.92
2022-10-03T00:49:29.133Z,22.60
2022-10-03T00:52:01.247Z,28.90
2022-10-03T00:54:46.613Z,21.02
2022-10-03T00:57:52.247Z,24.83
2022-10-03T01:00:25.137Z,19.65
2022-10-03T01:02:52.279Z,20.67
2022-10-03T01:05:31.767Z,16.80
2022-10-03T01:08:22.841Z,21.38
2022-10-03T01:11:23.271Z,22.77
2022-10-03T01:14:08.893Z,21.00
2022-10-03T01:17:02.942Z,19.45
2022-10-03T01:19:53.125Z,20.50
2022-10-03T01:22:19.884Z,19.55
2022-10-03T01:24:51.016Z,23.25
2022-10-03T01:27:56.979Z,21.65
2022-10-03T01:30:23.874Z,18.45
2022-10-03T01:33:12.954Z,17.13
2022-10-03T01:36:00.175Z,23.98
2022-10-03T01:38:48.176Z,23.17
2022-10-03T01:41:35.988Z,17.48
2022-10-03T01:44:16.684Z,20.35
2022-10-03T01:46:54.841Z,18.40
2022-10-03T01:49:48.090Z,22.38
2022-10-03T01:52:22.822Z,22.25
2022-10-03T01:55:31.272Z,24.20
2022-10-03T01:58:14.602Z,15.20
2022-10-03T02:03:21.645Z,16.13
2022-10-03T02:06:03.003Z,11.95
2022-10-03T02:08:54.160Z,20.65
2022-10-03T02:11:30.357Z,16.92
2022-10-03T02:14:36.269Z,18.45
2022-10-03T02:17:33.953Z,13.15
2022-10-03T02:20:08.000Z,28.67
2022-10-03T02:22:42.695Z,21.83
2022-10-03T02:25:36.692Z,15.85
2022-10-03T02:28:09.713Z,26.23
2022-10-03T02:33:26.939Z,18.48
2022-10-03T02:36:15.128Z,25.65
2022-10-03T02:38:54.063Z,25.55
2022-10-03T02:41:49.203Z,30.52
2022-10-03T02:45:06.876Z,18.73
2022-10-03T02:47:48.594Z,29.73
2022-10-03T02:50:50.569Z,23.15
2022-10-03T02:53:38.575Z,21.00
2022-10-03T02:56:14.044Z,20.55
2022-10-03T02:58:56.987Z,13.93
2022-10-03T03:01:35.470Z,14.15
2022-10-03T03:04:39.399Z,13.15
2022-10-03T03:07:38.392Z,25.80
2022-10-03T03:10:22.734Z,25.00
2022-10-03T03:13:18.467Z,22.42
2022-10-03T03:16:18.934Z,22.70
2022-10-03T03:19:23.057Z,30.70
2022-10-03T03:21:49.976Z,23.25
2022-10-03T03:24:31.605Z,22.73
2022-10-03T03:27:23.043Z,27.20
2022-10-03T03:30:14.971Z,20.48
2022-10-03T03:32:57.964Z,20.13
2022-10-03T03:35:52.487Z,36.40
2022-10-03T03:38:26.129Z,30.15
2022-10-03T03:41:17.115Z,28.33
2022-10-03T03:44:06.973Z,29.10
2022-10-03T03:46:45.977Z,29.38
2022-10-03T03:49:54.651Z,31.35
2022-10-03T03:53:01.125Z,31.48
2022-10-03T03:55:49.161Z,29.63
2022-10-03T03:58:37.543Z,30.35
2022-10-03T04:01:44.317Z,32.58
2022-10-03T04:04:36.844Z,37.70
2022-10-03T04:07:31.947Z,32.60
2022-10-03T04:09:59.805Z,25.83
2022-10-03T04:12:27.402Z,31.02
2022-10-03T04:15:07.417Z,29.88
2022-10-03T04:18:05.672Z,44.22
2022-10-03T04:21:02.328Z,36.28
2022-10-03T04:24:06.906Z,35.25
2022-10-03T04:26:55.227Z,33.72
2022-10-03T04:29:26.488Z,40.60
2022-10-03T04:31:59.358Z,44.95
2022-10-03T04:34:41.976Z,37.22
2022-10-03T04:37:42.162Z,36.10
2022-10-03T04:40:25.938Z,34.75
2022-10-03T04:43:09.656Z,35.03
2022-10-03T04:45:54.693Z,35.08
2022-10-03T04:48:38.977Z,38.70
2022-10-03T04:51:16.367Z,26.58
2022-10-03T04:53:53.884Z,36.60
2022-10-03T04:56:26.724Z,30.52
2022-10-03T04:58:58.189Z,25.67
2022-10-03T05:01:39.000Z,33.13
2022-10-03T05:04:24.179Z,40.20
2022-10-03T05:07:07.385Z,41.08
2022-10-03T05:12:42.172Z,41.45
2022-10-03T05:15:18.533Z,37.75
2022-10-03T05:18:03.567Z,34.88
2022-10-03T05:20:49.298Z,45.15
2022-10-03T05:23:25.711Z,37.40
2022-10-03T05:26:32.409Z,33.38
2022-10-03T05:29:00.019Z,33.75
2022-10-03T05:32:04.776Z,42.72
2022-10-03T05:35:08.999Z,42.72
2022-10-03T05:37:53.576Z,42.88
2022-10-03T05:40:28.228Z,36.78
2022-10-03T05:43:11.395Z,38.70
2022-10-03T05:45:47.138Z,35.30
2022-10-03T05:48:58.781Z,34.65
2022-10-03T05:51:46.832Z,36.67
2022-10-03T05:54:25.930Z,40.85
2022-10-03T05:57:21.687Z,43.38
2022-10-03T05:59:59.449Z,33.85
2022-10-03T06:03:02.904Z,38.53
2022-10-03T06:05:32.617Z,42.55
2022-10-03T06:08:19.934Z,38.92
2022-10-03T06:10:56.136Z,29.35
2022-10-03T06:14:08.113Z,34.55
2022-10-03T06:16:56.736Z,30.00
2022-10-03T06:19:38.403Z,36.30
2022-10-03T06:22:41.327Z,35.03
2022-10-03T06:25:50.454Z,34.70
2022-10-03T06:28:28.862Z,32.75
2022-10-03T06:31:21.120Z,34.50
2022-10-03T06:34:06.480Z,33.15
2022-10-03T06:36:59.980Z,31.52
2022-10-03T06:42:25.455Z,36.85
2022-10-03T06:45:31.089Z,32.58
2022-10-03T06:48:21.305Z,30.02
2022-10-03T06:51:12.328Z,28.15
2022-10-03T06:54:16.483Z,31.33
2022-10-03T06:57:05.901Z,24.77
2022-10-03T06:59:36.809Z,41.08
2022-10-03T07:02:26.135Z,37.35
2022-10-03T07:05:26.154Z,36.40
2022-10-03T07:08:06.126Z,40.45
2022-10-03T07:10:47.934Z,35.28
2022-10-03T07:13:15.856Z,34.95
2022-10-03T07:16:27.077Z,36.83
2022-10-03T07:19:03.532Z,31.77
2022-10-03T07:21:31.231Z,34.60
2022-10-03T07:24:03.453Z,34.80
2022-10-03T07:27:04.586Z,36.88
2022-10-03T07:30:06.891Z,35.90
2022-10-03T07:33:07.658Z,35.08
2022-10-03T07:35:59.468Z,37.88
2022-10-03T07:39:01.493Z,31.73
2022-10-03T07:41:32.578Z,37.47
2022-10-03T07:44:29.702Z,29.42
2022-10-03T07:47:33.716Z,29.30
2022-10-03T07:50:27.849Z,36.85
2022-10-03T07:52:57.621Z,36.00
2022-10-03T07:55:48.217Z,37.35
2022-10-03T07:58:42.594Z,27.05
2022-10-03T08:01:23.785Z,27.00
2022-10-03T08:04:00.291Z,26.02
2022-10-03T08:06:38.845Z,36.17
2022-10-03T08:09:24.891Z,30.52
2022-10-03T08:12:16.234Z,25.95
2022-10-03T08:14:45.887Z,25.10
2022-10-03T08:17:58.175Z,36.30
2022-10-03T08:20:37.503Z,23.27
2022-10-03T08:23:34.987Z,29.60
2022-10-03T08:26:31.785Z,27.75
2022-10-03T08:29:25.459Z,29.77
2022-10-03T08:32:23.178Z,23.65
2022-10-03T08:35:11.311Z,23.70
2022-10-03T08:38:04.438Z,33.63
2022-10-03T08:41:01.947Z,29.15
2022-10-03T08:43:43.915Z,21.90
2022-10-03T08:46:47.859Z,25.48
2022-10-03T08:49:15.820Z,27.08
2022-10-03T08:51:43.178Z,27.00
2022-10-03T08:54:22.899Z,31.05
2022-10-03T08:57:09.656Z,22.52
2022-10-03T09:00:01.686Z,16.33
2022-10-03T09:03:02.045Z,18.38
2022-10-03T09:06:14.189Z,15.93
2022-10-03T09:09:35.663Z,21.67
2022-10-03T09:12:09.137Z,18.85
2022-10-03T09:14:44.971Z,20.83
2022-10-03T09:18:05.571Z,18.33
2022-10-03T09:21:17.980Z,18.67
2022-10-03T09:23:51.479Z,16.80
2022-10-03T09:26:40.080Z,13.48
2022-10-03T09:29:44.593Z,29.65
2022-10-03T09:32:47.992Z,15.15
2022-10-03T09:35:39.064Z,13.35
2022-10-03T09:38:33.681Z,24.77
2022-10-03T09:41:08.516Z,12.82
2022-10-03T09:44:05.398Z,15.25
2022-10-03T09:46:46.578Z,14.15
2022-10-03T09:49:38.765Z,18.73
2022-10-03T09:52:15.052Z,12.45
2022-10-03T09:54:50.401Z,15.90
2022-10-03T09:57:42.399Z,17.83
2022-10-03T10:00:24.560Z,17.73
2022-10-03T10:03:18.709Z,13.10
2022-10-03T10:06:04.494Z,15.50
2022-10-03T10:09:12.802Z,16.70
2022-10-03T10:12:16.388Z,14.50
2022-10-03T10:15:06.688Z,6.60
2022-10-03T10:17:55.337Z,18.05
2022-10-03T10:20:40.022Z,14.30
2022-10-03T10:23:33.593Z,10.90
2022-10-03T10:26:43.375Z,16.40
2022-10-03T10:29:35.043Z,13.63
2022-10-03T10:32:21.674Z,13.85
2022-10-03T10:35:19.575Z,15.85
2022-10-03T10:38:37.683Z,12.70
2022-10-03T10:41:35.051Z,15.63
2022-10-03T10:44:37.155Z,16.52
2022-10-03T10:47:29.082Z,16.15
2022-10-03T10:50:47.093Z,19.65
2022-10-03T10:53:51.266Z,17.63
2022-10-03T10:56:27.412Z,13.35
2022-10-03T10:59:22.046Z,17.45
2022-10-03T11:02:25.877Z,22.70
2022-10-03T11:05:30.134Z,22.13
2022-10-03T11:08:25.611Z,11.57
2022-10-03T11:11:49.603Z,13.98
2022-10-03T11:14:32.714Z,15.50
2022-10-03T11:17:37.790Z,13.40
2022-10-03T11:20:28.712Z,15.27
2022-10-03T11:23:19.639Z,11.05
2022-10-03T11:25:58.238Z,11.73
2022-10-03T11:29:02.391Z,14.43
2022-10-03T11:32:09.551Z,13.13
2022-10-03T11:34:54.640Z,11.40
2022-10-03T11:37:43.052Z,13.68
2022-10-03T11:40:39.412Z,14.02
2022-10-03T11:43:36.995Z,9.52
2022-10-03T11:46:15.956Z,17.08
2022-10-03T11:48:52.776Z,15.48
2022-10-03T11:51:24.780Z,12.90
2022-10-03T11:54:19.207Z,12.23
2022-10-03T11:56:48.006Z,18.30
2022-10-03T11:59:37.837Z,13.10
2022-10-03T12:02:13.916Z,13.25
2022-10-03T12:04:55.779Z,11.77
2022-10-03T12:08:03.243Z,11.13
2022-10-03T12:10:39.382Z,15.40
2022-10-03T12:13:29.224Z,12.85
2022-10-03T12:16:02.044Z,11.82
2022-10-03T12:18:42.518Z,10.07
2022-10-03T12:21:32.646Z,13.30
2022-10-03T12:24:19.958Z,13.98
2022-10-03T12:27:26.482Z,15.68
2022-10-03T12:29:59.134Z,12.18
2022-10-03T12:32:49.821Z,11.63
2022-10-03T12:35:22.818Z,15.13
2022-10-03T12:40:44.317Z,8.13
2022-10-03T12:43:37.478Z,7.72
2022-10-03T12:46:14.765Z,8.38
2022-10-03T12:48:46.832Z,8.93
2022-10-03T12:51:41.049Z,12.93
2022-10-03T12:54:28.369Z,17.63
2022-10-03T12:57:39.750Z,10.55
2022-10-03T13:00:57.649Z,9.43
2022-10-03T13:03:41.974Z,12.30
2022-10-03T13:07:02.249Z,13.55
2022-10-03T13:09:49.901Z,9.75
2022-10-03T13:12:41.715Z,11.30
2022-10-03T13:15:45.028Z,10.18
2022-10-03T13:18:30.656Z,10.45
2022-10-03T13:21:33.416Z,12.35
2022-10-03T13:24:09.453Z,14.40
2022-10-03T13:26:53.983Z,12.82
2022-10-03T13:29:55.438Z,13.45
2022-10-03T13:32:30.402Z,6.13
2022-10-03T13:34:59.518Z,8.35
2022-10-03T13:37:57.393Z,9.98
2022-10-03T13:40:26.037Z,16.25
2022-10-03T13:42:53.829Z,10.32
2022-10-03T13:45:28.326Z,7.70
2022-10-03T13:48:14.405Z,11.15
2022-10-03T13:51:05.652Z,13.93
2022-10-03T13:53:58.856Z,6.97
2022-10-03T13:56:55.847Z,8.25
2022-10-03T13:59:29.711Z,10.30
2022-10-03T14:02:02.440Z,8.73
2022-10-03T14:04:46.829Z,10.55
2022-10-03T14:07:42.045Z,7.55
2022-10-03T14:10:26.682Z,9.13
2022-10-03T14:13:02.451Z,13.00
2022-10-03T14:15:29.801Z,5.57
2022-10-03T14:18:19.740Z,11.43
2022-10-03T14:21:20.195Z,13.77
2022-10-03T14:24:03.611Z,8.05
2022-10-03T14:26:55.410Z,12.00
2022-10-03T14:29:43.934Z,9.77
2022-10-03T14:32:46.369Z,7.47
2022-10-03T14:35:18.095Z,6.18
2022-10-03T14:38:06.968Z,11.88
2022-10-03T14:40:51.320Z,9.38
2022-10-03T14:43:21.035Z,7.00
2022-10-03T14:45:54.264Z,6.35
2022-10-03T14:48:27.769Z,8.82
2022-10-03T14:51:27.267Z,11.80
2022-10-03T14:54:03.228Z,9.50
2022-10-03T14:56:34.042Z,6.32
2022-10-03T14:59:03.767Z,8.93
2022-10-03T15:01:30.986Z,8.57
2022-10-03T15:04:10.185Z,11.50
2022-10-03T15:06:46.042Z,10.18
2022-10-03T15:09:19.403Z,10.95
2022-10-03T15:11:50.714Z,9.60
2022-10-03T15:14:17.749Z,7.60
2022-10-03T15:17:06.966Z,7.65
2022-10-03T15:19:44.422Z,10.30
2022-10-03T15:22:36.469Z,9.05
2022-10-03T15:25:22.580Z,7.97
2022-10-03T15:28:01.888Z,12.38
2022-10-03T15:30:32.575Z,8.98
2022-10-03T15:33:19.659Z,12.05
2022-10-03T15:35:50.881Z,10.23
2022-10-03T15:38:27.449Z,15.43
2022-10-03T15:41:13.331Z,12.77
2022-10-03T15:43:57.137Z,8.55
2022-10-03T15:46:39.705Z,6.47
2022-10-03T15:49:08.204Z,9.55
2022-10-03T15:51:38.596Z,15.55
2022-10-03T15:54:09.979Z,9.57
2022-10-03T15:56:48.270Z,12.15
2022-10-03T15:59:32.230Z,28.27
2022-10-03T16:02:02.757Z,8.98
2022-10-03T16:04:34.940Z,9.00
2022-10-03T16:07:09.541Z,12.10
2022-10-03T16:09:51.161Z,15.10
2022-10-03T16:12:38.120Z,8.85
2022-10-03T16:15:15.080Z,23.85
2022-10-03T16:17:45.369Z,10.93
2022-10-03T16:20:32.151Z,11.38
2022-10-03T16:23:17.044Z,13.13
2022-10-03T16:26:02.396Z,8.70
2022-10-03T16:28:39.516Z,8.73
2022-10-03T16:31:13.025Z,13.63
2022-10-03T16:33:53.533Z,13.18
2022-10-03T16:36:25.243Z,11.80
2022-10-03T16:38:57.124Z,15.25
2022-10-03T16:41:32.512Z,13.38
2022-10-03T16:44:05.114Z,16.45
2022-10-03T16:46:38.217Z,64.13
2022-10-03T16:52:15.561Z,11.93
2022-10-03T16:54:43.991Z,8.73
2022-10-03T16:57:26.616Z,9.20
2022-10-03T16:59:54.670Z,7.07
2022-10-03T17:02:31.865Z,8.05
2022-10-03T17:05:11.138Z,9.10
2022-10-03T17:08:06.687Z,8.63
2022-10-03T17:10:46.928Z,17.33
2022-10-03T17:13:21.242Z,11.45
2022-10-03T17:15:53.081Z,16.58
2022-10-03T17:18:28.262Z,14.55
2022-10-03T17:21:07.619Z,13.85
2022-10-03T17:23:38.903Z,15.73
2022-10-03T17:26:29.608Z,13.07
2022-10-03T17:29:25.692Z,14.70
2022-10-03T17:32:00.592Z,22.80
2022-10-03T17:34:34.407Z,16.83
2022-10-03T17:37:33.687Z,17.20
2022-10-03T17:40:24.906Z,12.50
2022-10-03T17:42:56.002Z,12.13
2022-10-03T17:45:40.704Z,7.97
2022-10-03T17:48:20.984Z,13.02
2022-10-03T17:51:05.317Z,14.02
2022-10-03T17:53:35.278Z,15.82
2022-10-03T17:56:10.509Z,10.07
2022-10-03T17:58:40.883Z,9.88
2022-10-03T18:01:11.096Z,16.80
2022-10-03T18:03:39.409Z,13.63
2022-10-03T18:06:42.831Z,10.45
2022-10-03T18:09:23.208Z,19.10
2022-10-03T18:11:50.772Z,12.50
2022-10-03T18:14:38.370Z,10.68
2022-10-03T18:17:17.287Z,7.55
2022-10-03T18:20:04.090Z,12.70
2022-10-03T18:22:40.752Z,24.35
2022-10-03T18:26:18.555Z,31.23
2022-10-03T18:28:45.784Z,12.23
2022-10-03T18:31:20.194Z,14.32
2022-10-03T18:34:01.960Z,13.07
2022-10-03T18:36:38.205Z,9.90
2022-10-03T18:39:25.413Z,12.23
2022-10-03T18:41:55.283Z,10.43
2022-10-03T18:48:03.757Z,22.48
2022-10-03T18:54:25.973Z,9.80
2022-10-03T18:57:05.325Z,11.10
2022-10-03T19:00:05.811Z,18.85
2022-10-03T19:02:44.129Z,17.77
2022-10-03T19:05:31.796Z,15.27
2022-10-03T19:08:18.850Z,13.50
2022-10-03T19:10:47.511Z,19.33
2022-10-03T19:13:53.907Z,28.40
2022-10-03T19:16:24.590Z,14.93
2022-10-03T19:19:05.919Z,17.60
2022-10-03T19:21:41.365Z,22.77
2022-10-03T19:24:27.049Z,22.52
2022-10-03T19:27:10.943Z,14.50
2022-10-03T19:29:56.096Z,17.60
2022-10-03T19:32:44.626Z,19.65
2022-10-03T19:35:16.600Z,13.88
2022-10-03T19:37:47.327Z,23.63
2022-10-03T19:40:30.461Z,15.77
2022-10-03T19:43:11.558Z,11.38
2022-10-03T19:45:40.551Z,11.98
2022-10-03T19:48:11.174Z,19.08
2022-10-03T19:50:38.556Z,17.27
2022-10-03T19:53:16.101Z,19.23
2022-10-03T19:55:43.852Z,17.92
2022-10-03T19:58:23.197Z,28.08
2022-10-03T20:00:54.827Z,22.10
2022-10-03T20:03:28.449Z,23.25
2022-10-03T20:06:20.957Z,19.73
2022-10-03T20:09:05.880Z,19.67
2022-10-03T20:11:32.630Z,23.67
2022-10-03T20:14:03.518Z,17.73
2022-10-03T20:16:35.856Z,23.20
2022-10-03T20:19:29.230Z,16.80
2022-10-03T20:21:59.114Z,15.63
2022-10-03T20:24:34.315Z,16.80
2022-10-03T20:27:29.239Z,24.67
2022-10-03T20:30:28.174Z,44.17
2022-10-03T20:32:56.910Z,47.22
2022-10-03T20:35:45.244Z,26.67
2022-10-03T20:38:32.936Z,18.58
2022-10-03T20:41:16.034Z,23.63
2022-10-03T20:43:55.965Z,13.07
2022-10-03T20:46:40.969Z,17.20
2022-10-03T20:49:34.056Z,16.10
2022-10-03T20:52:08.259Z,20.33
2022-10-03T20:54:53.329Z,21.08
2022-10-03T20:57:32.390Z,19.58
2022-10-03T21:00:21.505Z,17.17
2022-10-03T21:03:01.851Z,16.55
2022-10-03T21:05:52.654Z,18.92
2022-10-03T21:08:33.647Z,23.95
2022-10-03T21:11:06.912Z,16.52
2022-10-03T21:13:42.148Z,14.82
2022-10-03T21:16:33.212Z,17.08
2022-10-03T21:19:13.740Z,20.10
2022-10-03T21:21:43.879Z,13.35
2022-10-03T21:24:52.841Z,15.57
2022-10-03T21:31:30.897Z,14.00
2022-10-03T21:37:37.953Z,14.10
2022-10-03T21:40:50.752Z,12.18
2022-10-03T21:43:46.467Z,14.20
2022-10-03T21:49:51.288Z,15.32
2022-10-03T21:59:52.003Z,11.10
2022-10-03T22:08:58.289Z,12.18
2022-10-03T22:15:10.230Z,11.52
2022-10-03T22:18:16.905Z,13.35
2022-10-03T22:23:57.444Z,11.95
2022-10-03T22:27:12.381Z,16.45
2022-10-03T22:30:09.664Z,10.68
2022-10-03T22:33:10.745Z,15.27
2022-10-03T22:35:50.699Z,16.70
2022-10-03T22:38:45.593Z,15.50
2022-10-03T22:41:19.429Z,18.35
2022-10-03T22:47:34.705Z,13.68
2022-10-03T22:54:03.066Z,16.23
2022-10-03T22:57:09.704Z,15.48
2022-10-03T23:00:35.816Z,14.25
2022-10-03T23:10:45.038Z,13.60
2022-10-03T23:13:27.695Z,10.00
2022-10-03T23:16:17.763Z,16.25
2022-10-03T23:19:16.609Z,8.77
2022-10-03T23:25:19.948Z,10.32
2022-10-03T23:27:52.880Z,11.18
2022-10-03T23:33:42.178Z,10.02
2022-10-03T23:36:49.948Z,18.92
2022-10-03T23:40:34.691Z,14.60
2022-10-03T23:43:34.607Z,18.52
2022-10-03T23:46:39.644Z,10.85
2022-10-03T23:52:16.168Z,11.88
2022-10-03T23:57:30.605Z,11.27
